地図

経路データ

SID SEASON NUMBER BASIN SUBBASIN NAME ISO_TIME NATURE LAT LON WMO_WIND WMO_PRES WMO_AGENCY TRACK_TYPE DIST2LAND LANDFALL IFLAG USA_AGENCY USA_ATCF_ID USA_LAT USA_LON USA_RECORD USA_STATUS USA_WIND USA_PRES USA_SSHS USA_R34_NE USA_R34_SE USA_R34_SW USA_R34_NW USA_R50_NE USA_R50_SE USA_R50_SW USA_R50_NW USA_R64_NE USA_R64_SE USA_R64_SW USA_R64_NW USA_POCI USA_ROCI USA_RMW USA_EYE TOKYO_LAT TOKYO_LON TOKYO_GRADE TOKYO_WIND TOKYO_PRES TOKYO_R50_DIR TOKYO_R50_LONG TOKYO_R50_SHORT TOKYO_R30_DIR TOKYO_R30_LONG TOKYO_R30_SHORT TOKYO_LAND CMA_LAT CMA_LON CMA_CAT CMA_WIND CMA_PRES HKO_LAT HKO_LON HKO_CAT HKO_WIND HKO_PRES NEWDELHI_LAT NEWDELHI_LON NEWDELHI_GRADE NEWDELHI_WIND NEWDELHI_PRES NEWDELHI_CI NEWDELHI_DP NEWDELHI_POCI REUNION_LAT REUNION_LON REUNION_TYPE REUNION_WIND REUNION_PRES REUNION_TNUM REUNION_CI REUNION_RMW REUNION_R34_NE REUNION_R34_SE REUNION_R34_SW REUNION_R34_NW REUNION_R50_NE REUNION_R50_SE REUNION_R50_SW REUNION_R50_NW REUNION_R64_NE REUNION_R64_SE REUNION_R64_SW REUNION_R64_NW BOM_LAT BOM_LON BOM_TYPE BOM_WIND BOM_PRES BOM_TNUM BOM_CI BOM_RMW BOM_R34_NE BOM_R34_SE BOM_R34_SW BOM_R34_NW BOM_R50_NE BOM_R50_SE BOM_R50_SW BOM_R50_NW BOM_R64_NE BOM_R64_SE BOM_R64_SW BOM_R64_NW BOM_ROCI BOM_POCI BOM_EYE BOM_POS_METHOD BOM_PRES_METHOD NADI_LAT NADI_LON NADI_CAT NADI_WIND NADI_PRES WELLINGTON_LAT WELLINGTON_LON WELLINGTON_WIND WELLINGTON_PRES DS824_LAT DS824_LON DS824_STAGE DS824_WIND DS824_PRES TD9636_LAT TD9636_LON TD9636_STAGE TD9636_WIND TD9636_PRES TD9635_LAT TD9635_LON TD9635_WIND TD9635_PRES TD9635_ROCI NEUMANN_LAT NEUMANN_LON NEUMANN_CLASS NEUMANN_WIND NEUMANN_PRES MLC_LAT MLC_LON MLC_CLASS MLC_WIND MLC_PRES USA_GUST BOM_GUST BOM_GUST_PER REUNION_GUST REUNION_GUST_PER USA_SEAHGT USA_SEARAD_NE USA_SEARAD_SE USA_SEARAD_SW USA_SEARAD_NW STORM_SPEED STORM_DIR
1975275N21067 1975 106 NI AS NOT_NAMED 1975-10-02 00:00:00 TS 20.7000 67.4000 main 236 220 O________OO___ jtwc_io IO141975 20.7000 67.4000 -1 20.7000 67.4000 TC 25 20.7000 67.4000 1 5 354
1975275N21067 1975 106 NI AS NOT_NAMED 1975-10-02 03:00:00 TS 20.9550 67.3941 main 212 197 P________PP___ IO141975 20.9575 67.3950 -1 20.9575 67.3950 TC 25 20.9499 67.3924 1 5 357
1975275N21067 1975 106 NI AS NOT_NAMED 1975-10-02 06:00:00 TS 21.1966 67.3992 main 197 184 O________OP___ jtwc_io IO141975 21.2000 67.4000 -1 21.2000 67.4000 TC 25 21.1899 67.3977 1 5 4
1975275N21067 1975 106 NI AS NOT_NAMED 1975-10-02 09:00:00 TS 21.4133 67.4281 main 184 164 P________PP___ IO141975 21.4150 67.4275 -1 21.4150 67.4275 TC 25 21.4099 67.4292 1 4 14
1975275N21067 1975 106 NI AS NOT_NAMED 1975-10-02 12:00:00 TS 21.6000 67.5000 main 164 145 O________OO___ jtwc_io IO141975 21.6000 67.5000 -1 21.6000 67.5000 TC 25 21.6000 67.5000 1 4 28
1975275N21067 1975 106 NI AS NOT_NAMED 1975-10-02 15:00:00 TS 21.7658 67.6338 main 145 121 P________PP___ IO141975 21.7725 67.6424 -1 21.7725 67.6424 TC 25 21.7523 67.6164 1 4 42
1975275N21067 1975 106 NI AS NOT_NAMED 1975-10-02 18:00:00 TS 21.8892 67.7858 main 121 108 O________OP___ jtwc_io IO141975 21.9000 67.8000 -1 21.9000 67.8000 TC 25 21.8677 67.7573 1 3 52
1975275N21067 1975 106 NI AS NOT_NAMED 1975-10-02 21:00:00 TS 21.9647 67.9132 main 108 98 P________PP___ IO141975 21.9725 67.9225 -1 21.9725 67.9225 TC 25 21.9492 67.8946 1 2 61
1975275N21067 1975 106 NI AS NOT_NAMED 1975-10-03 00:00:00 TS 22.0000 68.0000 main 98 98 O________OO___ jtwc_io IO141975 22.0000 68.0000 -1 22.0000 68.0000 TC 25 22.0000 68.0000 1 1 65
1975275N21067 1975 106 NI AS NOT_NAMED 1975-10-03 03:00:00 TS 22.0091 68.0166 main 98 98 P________PP___ IO141975 22.0075 68.0150 -1 22.0075 68.0150 TC 25 22.0124 68.0198 1 0 0
1975275N21067 1975 106 NI AS NOT_NAMED 1975-10-03 06:00:00 TS 22.0000 68.0026 main 98 98 O________OP___ jtwc_io IO141975 22.0000 68.0000 -1 22.0000 68.0000 TC 25 21.9999 68.0077 1 0 0
1975275N21067 1975 106 NI AS NOT_NAMED 1975-10-03 09:00:00 TS 21.9858 67.9872 main 98 98 P________PP___ IO141975 21.9850 67.9850 -1 21.9850 67.9850 TC 25 21.9874 67.9917 1 0 0
1975275N21067 1975 106 NI AS NOT_NAMED 1975-10-03 12:00:00 TS 22.0000 68.0000 main 98 85 O________OO___ jtwc_io IO141975 22.0000 68.0000 -1 22.0000 68.0000 TC 25 22.0000 68.0000 1 1 40
1975275N21067 1975 106 NI AS NOT_NAMED 1975-10-03 15:00:00 TS 22.0859 68.0857 main 85 72 P________PP___ IO141975 22.0850 68.0850 -1 22.0850 68.0850 TC 25 22.0876 68.0873 1 3 43
1975275N21067 1975 106 NI AS NOT_NAMED 1975-10-03 18:00:00 TS 22.2000 68.1999 main 72 61 O________OP___ jtwc_io IO141975 22.2000 68.2000 -1 22.2000 68.2000 TC 25 22.2001 68.1997 1 3 43
1975275N21067 1975 106 NI AS NOT_NAMED 1975-10-03 21:00:00 TS 22.3142 68.3141 main 61 52 P________PP___ IO141975 22.3150 68.3150 -1 22.3150 68.3150 TC 25 22.3126 68.3123 1 3 43
1975275N21067 1975 106 NI AS NOT_NAMED 1975-10-04 00:00:00 TS 22.4000 68.4000 main 52 52 O________OO___ jtwc_io IO141975 22.4000 68.4000 -1 22.4000 68.4000 TC 25 22.4000 68.4000 1 1 40
1975275N21067 1975 106 NI AS NOT_NAMED 1975-10-04 03:00:00 TS 22.4141 68.4142 main 52 52 P________PP___ IO141975 22.4150 68.4150 -1 22.4150 68.4150 TC 25 22.4124 68.4126 1 0 0
1975275N21067 1975 106 NI AS NOT_NAMED 1975-10-04 06:00:00 TS 22.4000 68.4001 main 52 52 O________OP___ jtwc_io IO141975 22.4000 68.4000 -1 22.4000 68.4000 TC 25 22.3999 68.4002 1 0 224
1975275N21067 1975 106 NI AS NOT_NAMED 1975-10-04 09:00:00 TS 22.3858 68.3859 main 52 52 P________PP___ IO141975 22.3850 68.3850 -1 22.3850 68.3850 TC 25 22.3874 68.3876 1 0 0
1975275N21067 1975 106 NI AS NOT_NAMED 1975-10-04 12:00:00 TS 22.4000 68.4000 main 52 46 O________OO___ jtwc_io IO141975 22.4000 68.4000 -1 22.4000 68.4000 TC 25 22.4000 68.4000 1 1 44
1975275N21067 1975 106 NI AS NOT_NAMED 1975-10-04 15:00:00 TS 22.4764 68.4790 main 46 38 P________PP___ IO141975 22.4850 68.4850 -1 22.4850 68.4850 TC 25 22.4591 68.4672 1 3 43
1975275N21067 1975 106 NI AS NOT_NAMED 1975-10-04 18:00:00 TS 22.5825 68.5875 main 45 38 O________OP___ jtwc_io IO141975 22.6000 68.6000 -1 22.6000 68.6000 TC 25 22.5475 68.5626 1 3 44
1975275N21067 1975 106 NI AS NOT_NAMED 1975-10-04 21:00:00 TS 22.6824 68.6922 main 39 24 P________PP___ IO141975 22.6925 68.7000 -1 22.6925 68.7000 TC 25 22.6622 68.6766 1 3 42
1975275N21067 1975 106 NI AS NOT_NAMED 1975-10-05 00:00:00 TS 22.8000 68.8000 main 24 11 O________OO___ jtwc_io IO141975 22.8000 68.8000 -1 22.8000 68.8000 TC 25 22.8000 68.8000 1 3 37
1975275N21067 1975 106 NI AS NOT_NAMED 1975-10-05 03:00:00 TS 22.9425 68.9033 main 11 0 P________PP___ IO141975 22.9350 68.8926 -1 22.9350 68.8926 TC 25 22.9575 68.9249 1 4 32
1975275N21067 1975 106 NI AS NOT_NAMED 1975-10-05 06:00:00 TS 23.1100 69.0166 main 0 0 O________OP___ jtwc_io IO141975 23.1000 69.0000 -1 23.1000 69.0000 TC 25 23.1301 69.0497 1 4 32
1975275N21067 1975 106 NI AS NOT_NAMED 1975-10-05 09:00:00 TS 23.2992 69.1515 main 0 0 P________PP___ IO141975 23.2925 69.1399 -1 23.2925 69.1399 TC 25 23.3126 69.1747 1 5 34
1975275N21067 1975 106 NI AS NOT_NAMED 1975-10-05 12:00:00 TS 23.5000 69.3000 main 0 O________OO___ jtwc_io IO141975 23.5000 69.3000 -1 23.5000 69.3000 TC 25 23.5000 69.3000 6 5 35

IBTrACS Databaseについて

本データベースは、米国NOAAが公開する1842年以降の世界の熱帯低気圧のベストトラックデータアーカイブInternational Best Track Archive for Climate Stewardship (IBTrACS)を、ウェブで閲覧しやすい形式に変換したものです。

最終更新日:2021-10-21